Terminal Aerodrome Forecast
Issued by NWS Charleston, WV

Current Version | Previous Version | Graphics & Text | Print | Product List | Glossary On
Versions: 1 2 3 4 5 6 7 8 9 10 11 12 13 14 15 16 17 18
000
FTUS41 KRLX 240500 RRA
TAFPKB
TAF
KPKB 240548Z 2406/2506 01005KT P6SM OVC020
      TEMPO 2406/2408 4SM -SHRA
     FM240800 01005KT P6SM BKN030 BKN100
     FM241400 36006KT P6SM BKN035
     FM242000 02007KT P6SM SCT040
     FM250000 VRB03KT P6SM FEW050
     FM250400 00000KT P6SM FEW150=

USA.gov is the U.S. government's official web portal to all federal, state and local government web resources and services.